sensor_id;sensor_type;location;lat;lon;timestamp;P1;durP1;ratioP1;P2;durP2;ratioP2
38567;SDS011;24338;48.280;10.970;2023-04-15T00:01:10;5.28;;;3.30;;
38567;SDS011;24338;48.280;10.970;2023-04-15T00:03:38;8.85;;;3.33;;
38567;SDS011;24338;48.280;10.970;2023-04-15T00:06:05;8.57;;;3.45;;
38567;SDS011;24338;48.280;10.970;2023-04-15T00:08:32;6.63;;;4.10;;
38567;SDS011;24338;48.280;10.970;2023-04-15T00:11:00;8.38;;;3.40;;
38567;SDS011;24338;48.280;10.970;2023-04-15T00:13:31;9.95;;;3.90;;
38567;SDS011;24338;48.280;10.970;2023-04-15T00:16:01;5.47;;;2.90;;
38567;SDS011;24338;48.280;10.970;2023-04-15T00:18:27;8.02;;;3.67;;
38567;SDS011;24338;48.280;10.970;2023-04-15T00:20:55;6.43;;;4.03;;
38567;SDS011;24338;48.280;10.970;2023-04-15T00:23:22;8.73;;;3.67;;
38567;SDS011;24338;48.280;10.970;2023-04-15T00:25:48;6.30;;;3.42;;
38567;SDS011;24338;48.280;10.970;2023-04-15T00:28:16;6.57;;;3.20;;
38567;SDS011;24338;48.280;10.970;2023-04-15T00:30:43;7.90;;;3.45;;
38567;SDS011;24338;48.280;10.970;2023-04-15T00:33:11;7.60;;;3.90;;
38567;SDS011;24338;48.280;10.970;2023-04-15T00:35:39;5.75;;;2.97;;
38567;SDS011;24338;48.280;10.970;2023-04-15T00:38:06;6.90;;;3.90;;
38567;SDS011;24338;48.280;10.970;2023-04-15T00:40:36;6.68;;;4.25;;
38567;SDS011;24338;48.280;10.970;2023-04-15T00:43:03;6.95;;;3.67;;
38567;SDS011;24338;48.280;10.970;2023-04-15T00:45:30;6.75;;;3.67;;
38567;SDS011;24338;48.280;10.970;2023-04-15T00:47:58;8.50;;;4.10;;
38567;SDS011;24338;48.280;10.970;2023-04-15T00:50:25;7.15;;;3.75;;
38567;SDS011;24338;48.280;10.970;2023-04-15T00:52:52;5.38;;;3.78;;
38567;SDS011;24338;48.280;10.970;2023-04-15T00:55:19;7.95;;;5.00;;
38567;SDS011;24338;48.280;10.970;2023-04-15T00:57:46;7.47;;;3.35;;
38567;SDS011;24338;48.280;10.970;2023-04-15T01:00:14;5.95;;;3.50;;
38567;SDS011;24338;48.280;10.970;2023-04-15T01:02:41;7.30;;;4.20;;
38567;SDS011;24338;48.280;10.970;2023-04-15T01:05:09;9.20;;;4.68;;
38567;SDS011;24338;48.280;10.970;2023-04-15T01:07:35;7.75;;;3.92;;
38567;SDS011;24338;48.280;10.970;2023-04-15T01:10:03;8.00;;;4.60;;
38567;SDS011;24338;48.280;10.970;2023-04-15T01:12:31;7.25;;;4.18;;
38567;SDS011;24338;48.280;10.970;2023-04-15T01:14:59;6.50;;;3.78;;
38567;SDS011;24338;48.280;10.970;2023-04-15T01:17:27;5.70;;;4.00;;
38567;SDS011;24338;48.280;10.970;2023-04-15T01:19:55;7.65;;;4.10;;
38567;SDS011;24338;48.280;10.970;2023-04-15T01:22:23;6.70;;;3.97;;
38567;SDS011;24338;48.280;10.970;2023-04-15T01:25:00;7.95;;;3.80;;
38567;SDS011;24338;48.280;10.970;2023-04-15T01:27:31;7.50;;;4.35;;
38567;SDS011;24338;48.280;10.970;2023-04-15T01:30:00;7.05;;;4.38;;
38567;SDS011;24338;48.280;10.970;2023-04-15T01:32:30;7.43;;;4.30;;
38567;SDS011;24338;48.280;10.970;2023-04-15T01:34:57;9.07;;;4.60;;
38567;SDS011;24338;48.280;10.970;2023-04-15T01:37:24;9.93;;;4.32;;
38567;SDS011;24338;48.280;10.970;2023-04-15T01:39:51;12.27;;;5.25;;
38567;SDS011;24338;48.280;10.970;2023-04-15T01:42:19;7.72;;;4.40;;
38567;SDS011;24338;48.280;10.970;2023-04-15T01:44:47;8.35;;;5.30;;
38567;SDS011;24338;48.280;10.970;2023-04-15T01:47:13;7.45;;;4.20;;
38567;SDS011;24338;48.280;10.970;2023-04-15T01:49:40;7.60;;;4.38;;
38567;SDS011;24338;48.280;10.970;2023-04-15T01:52:07;7.03;;;4.03;;
38567;SDS011;24338;48.280;10.970;2023-04-15T01:54:34;9.25;;;4.80;;
38567;SDS011;24338;48.280;10.970;2023-04-15T01:57:01;8.93;;;4.35;;
38567;SDS011;24338;48.280;10.970;2023-04-15T01:59:29;8.88;;;4.32;;
38567;SDS011;24338;48.280;10.970;2023-04-15T02:01:57;7.53;;;4.72;;
38567;SDS011;24338;48.280;10.970;2023-04-15T02:04:25;7.60;;;4.65;;
38567;SDS011;24338;48.280;10.970;2023-04-15T02:06:52;10.98;;;4.30;;
38567;SDS011;24338;48.280;10.970;2023-04-15T02:09:18;12.13;;;5.15;;
38567;SDS011;24338;48.280;10.970;2023-04-15T02:11:45;6.22;;;4.18;;
38567;SDS011;24338;48.280;10.970;2023-04-15T02:14:12;8.80;;;4.43;;
38567;SDS011;24338;48.280;10.970;2023-04-15T02:16:39;8.88;;;4.78;;
38567;SDS011;24338;48.280;10.970;2023-04-15T02:19:06;8.00;;;4.30;;
38567;SDS011;24338;48.280;10.970;2023-04-15T02:21:34;6.38;;;3.65;;
38567;SDS011;24338;48.280;10.970;2023-04-15T02:24:00;9.80;;;4.10;;
38567;SDS011;24338;48.280;10.970;2023-04-15T02:26:27;7.65;;;4.20;;
38567;SDS011;24338;48.280;10.970;2023-04-15T02:28:57;5.50;;;3.60;;
38567;SDS011;24338;48.280;10.970;2023-04-15T02:31:25;11.63;;;4.03;;
38567;SDS011;24338;48.280;10.970;2023-04-15T02:33:52;8.85;;;3.97;;
38567;SDS011;24338;48.280;10.970;2023-04-15T02:36:18;7.78;;;4.63;;
38567;SDS011;24338;48.280;10.970;2023-04-15T02:38:46;8.27;;;4.20;;
38567;SDS011;24338;48.280;10.970;2023-04-15T02:41:13;9.00;;;3.70;;
38567;SDS011;24338;48.280;10.970;2023-04-15T02:43:40;7.47;;;3.28;;
38567;SDS011;24338;48.280;10.970;2023-04-15T02:46:07;9.25;;;4.30;;
38567;SDS011;24338;48.280;10.970;2023-04-15T02:48:33;8.93;;;4.47;;
38567;SDS011;24338;48.280;10.970;2023-04-15T02:51:11;10.07;;;4.32;;
38567;SDS011;24338;48.280;10.970;2023-04-15T02:53:38;11.10;;;4.05;;
38567;SDS011;24338;48.280;10.970;2023-04-15T02:56:06;6.53;;;3.60;;
38567;SDS011;24338;48.280;10.970;2023-04-15T02:58:34;7.00;;;3.78;;
38567;SDS011;24338;48.280;10.970;2023-04-15T03:01:01;7.70;;;4.07;;
38567;SDS011;24338;48.280;10.970;2023-04-15T03:03:28;6.97;;;4.05;;
38567;SDS011;24338;48.280;10.970;2023-04-15T03:05:54;7.43;;;3.80;;
38567;SDS011;24338;48.280;10.970;2023-04-15T03:08:21;8.55;;;4.15;;
38567;SDS011;24338;48.280;10.970;2023-04-15T03:10:48;8.57;;;4.20;;
38567;SDS011;24338;48.280;10.970;2023-04-15T03:13:17;7.95;;;4.28;;
38567;SDS011;24338;48.280;10.970;2023-04-15T03:15:45;5.80;;;3.90;;
38567;SDS011;24338;48.280;10.970;2023-04-15T03:18:12;10.13;;;4.40;;
38567;SDS011;24338;48.280;10.970;2023-04-15T03:20:39;11.25;;;3.67;;
38567;SDS011;24338;48.280;10.970;2023-04-15T03:23:06;7.95;;;3.72;;
38567;SDS011;24338;48.280;10.970;2023-04-15T03:25:33;6.82;;;3.78;;
38567;SDS011;24338;48.280;10.970;2023-04-15T03:28:02;8.57;;;3.78;;
38567;SDS011;24338;48.280;10.970;2023-04-15T03:30:29;6.25;;;3.60;;
38567;SDS011;24338;48.280;10.970;2023-04-15T03:32:56;7.07;;;3.80;;
38567;SDS011;24338;48.280;10.970;2023-04-15T03:35:23;8.57;;;3.83;;
38567;SDS011;24338;48.280;10.970;2023-04-15T03:37:50;10.35;;;4.68;;
38567;SDS011;24338;48.280;10.970;2023-04-15T03:40:17;7.32;;;3.60;;
38567;SDS011;24338;48.280;10.970;2023-04-15T03:42:44;9.45;;;3.83;;
38567;SDS011;24338;48.280;10.970;2023-04-15T03:45:13;7.05;;;3.08;;
38567;SDS011;24338;48.280;10.970;2023-04-15T03:47:40;5.65;;;3.17;;
38567;SDS011;24338;48.280;10.970;2023-04-15T03:50:07;11.75;;;3.63;;
38567;SDS011;24338;48.280;10.970;2023-04-15T03:52:34;7.25;;;3.30;;
38567;SDS011;24338;48.280;10.970;2023-04-15T03:55:01;6.70;;;2.47;;
38567;SDS011;24338;48.280;10.970;2023-04-15T03:57:28;8.93;;;3.03;;
38567;SDS011;24338;48.280;10.970;2023-04-15T03:59:55;8.55;;;3.63;;
38567;SDS011;24338;48.280;10.970;2023-04-15T04:02:24;7.20;;;3.40;;
38567;SDS011;24338;48.280;10.970;2023-04-15T04:04:51;8.93;;;3.17;;
38567;SDS011;24338;48.280;10.970;2023-04-15T04:07:19;6.35;;;3.03;;
38567;SDS011;24338;48.280;10.970;2023-04-15T04:09:45;7.32;;;2.95;;
38567;SDS011;24338;48.280;10.970;2023-04-15T04:12:12;8.50;;;3.45;;
38567;SDS011;24338;48.280;10.970;2023-04-15T04:14:39;4.38;;;2.30;;
38567;SDS011;24338;48.280;10.970;2023-04-15T04:17:06;6.07;;;2.80;;
38567;SDS011;24338;48.280;10.970;2023-04-15T04:19:33;7.68;;;2.92;;
38567;SDS011;24338;48.280;10.970;2023-04-15T04:22:03;8.60;;;3.50;;
38567;SDS011;24338;48.280;10.970;2023-04-15T04:24:30;5.38;;;2.85;;
38567;SDS011;24338;48.280;10.970;2023-04-15T04:26:56;8.23;;;3.70;;
38567;SDS011;24338;48.280;10.970;2023-04-15T04:29:23;4.93;;;2.92;;
38567;SDS011;24338;48.280;10.970;2023-04-15T04:31:50;6.53;;;2.75;;
38567;SDS011;24338;48.280;10.970;2023-04-15T04:34:20;5.30;;;2.20;;
38567;SDS011;24338;48.280;10.970;2023-04-15T04:36:46;8.23;;;3.00;;
38567;SDS011;24338;48.280;10.970;2023-04-15T04:39:13;6.88;;;2.72;;
38567;SDS011;24338;48.280;10.970;2023-04-15T04:41:40;8.88;;;4.00;;
38567;SDS011;24338;48.280;10.970;2023-04-15T04:44:07;5.10;;;2.40;;
38567;SDS011;24338;48.280;10.970;2023-04-15T04:46:33;7.28;;;2.95;;
38567;SDS011;24338;48.280;10.970;2023-04-15T04:49:00;8.10;;;3.40;;
38567;SDS011;24338;48.280;10.970;2023-04-15T04:51:27;11.13;;;2.60;;
38567;SDS011;24338;48.280;10.970;2023-04-15T04:53:54;6.15;;;2.53;;
38567;SDS011;24338;48.280;10.970;2023-04-15T04:56:22;8.23;;;2.17;;
38567;SDS011;24338;48.280;10.970;2023-04-15T04:58:49;9.15;;;2.38;;
38567;SDS011;24338;48.280;10.970;2023-04-15T05:01:16;8.13;;;2.25;;
38567;SDS011;24338;48.280;10.970;2023-04-15T05:03:43;7.22;;;3.05;;
38567;SDS011;24338;48.280;10.970;2023-04-15T05:06:10;7.63;;;1.92;;
38567;SDS011;24338;48.280;10.970;2023-04-15T05:08:37;5.63;;;2.25;;
38567;SDS011;24338;48.280;10.970;2023-04-15T05:11:05;5.45;;;1.95;;
38567;SDS011;24338;48.280;10.970;2023-04-15T05:13:32;6.32;;;2.05;;
38567;SDS011;24338;48.280;10.970;2023-04-15T05:15:59;6.95;;;2.15;;
38567;SDS011;24338;48.280;10.970;2023-04-15T05:18:26;7.13;;;2.15;;
38567;SDS011;24338;48.280;10.970;2023-04-15T05:20:52;5.07;;;1.67;;
38567;SDS011;24338;48.280;10.970;2023-04-15T05:23:19;5.20;;;2.15;;
38567;SDS011;24338;48.280;10.970;2023-04-15T05:25:46;4.22;;;1.90;;
38567;SDS011;24338;48.280;10.970;2023-04-15T05:28:13;8.00;;;2.08;;
38567;SDS011;24338;48.280;10.970;2023-04-15T05:30:40;5.00;;;1.52;;
38567;SDS011;24338;48.280;10.970;2023-04-15T05:33:07;7.65;;;2.50;;
38567;SDS011;24338;48.280;10.970;2023-04-15T05:35:34;4.97;;;1.35;;
38567;SDS011;24338;48.280;10.970;2023-04-15T05:38:01;3.58;;;1.40;;
38567;SDS011;24338;48.280;10.970;2023-04-15T05:40:29;3.78;;;1.63;;
38567;SDS011;24338;48.280;10.970;2023-04-15T05:42:56;4.65;;;1.77;;
38567;SDS011;24338;48.280;10.970;2023-04-15T05:45:23;3.90;;;1.50;;
38567;SDS011;24338;48.280;10.970;2023-04-15T05:47:50;5.93;;;1.40;;
38567;SDS011;24338;48.280;10.970;2023-04-15T05:50:19;4.13;;;1.77;;
38567;SDS011;24338;48.280;10.970;2023-04-15T05:52:46;6.55;;;1.55;;
38567;SDS011;24338;48.280;10.970;2023-04-15T05:55:13;4.57;;;1.80;;
38567;SDS011;24338;48.280;10.970;2023-04-15T05:57:40;6.35;;;1.58;;
38567;SDS011;24338;48.280;10.970;2023-04-15T06:00:06;5.78;;;1.92;;
38567;SDS011;24338;48.280;10.970;2023-04-15T06:02:34;7.10;;;1.88;;
38567;SDS011;24338;48.280;10.970;2023-04-15T06:05:01;9.55;;;1.35;;
38567;SDS011;24338;48.280;10.970;2023-04-15T06:07:29;4.07;;;1.02;;
38567;SDS011;24338;48.280;10.970;2023-04-15T06:09:56;5.50;;;1.58;;
38567;SDS011;24338;48.280;10.970;2023-04-15T06:12:22;4.35;;;1.23;;
38567;SDS011;24338;48.280;10.970;2023-04-15T06:14:49;5.40;;;1.48;;
38567;SDS011;24338;48.280;10.970;2023-04-15T06:17:16;4.88;;;1.90;;
38567;SDS011;24338;48.280;10.970;2023-04-15T06:19:44;5.88;;;1.08;;
38567;SDS011;24338;48.280;10.970;2023-04-15T06:22:12;4.22;;;1.27;;
38567;SDS011;24338;48.280;10.970;2023-04-15T06:24:38;6.43;;;1.90;;
38567;SDS011;24338;48.280;10.970;2023-04-15T06:27:06;5.22;;;1.13;;
38567;SDS011;24338;48.280;10.970;2023-04-15T06:29:33;4.40;;;1.63;;
38567;SDS011;24338;48.280;10.970;2023-04-15T06:32:00;11.23;;;1.65;;
38567;SDS011;24338;48.280;10.970;2023-04-15T06:34:26;3.33;;;1.15;;
38567;SDS011;24338;48.280;10.970;2023-04-15T06:36:53;7.50;;;1.30;;
38567;SDS011;24338;48.280;10.970;2023-04-15T06:39:20;2.15;;;0.95;;
38567;SDS011;24338;48.280;10.970;2023-04-15T06:41:47;4.07;;;1.20;;
38567;SDS011;24338;48.280;10.970;2023-04-15T06:44:14;5.07;;;1.00;;
38567;SDS011;24338;48.280;10.970;2023-04-15T06:46:41;4.93;;;1.17;;
38567;SDS011;24338;48.280;10.970;2023-04-15T06:49:08;4.57;;;1.17;;
38567;SDS011;24338;48.280;10.970;2023-04-15T06:51:35;3.92;;;0.73;;
38567;SDS011;24338;48.280;10.970;2023-04-15T06:54:03;5.07;;;0.80;;
38567;SDS011;24338;48.280;10.970;2023-04-15T06:56:31;3.40;;;0.93;;
38567;SDS011;24338;48.280;10.970;2023-04-15T06:58:58;4.20;;;1.15;;
38567;SDS011;24338;48.280;10.970;2023-04-15T07:01:26;5.65;;;1.15;;
38567;SDS011;24338;48.280;10.970;2023-04-15T07:03:53;5.95;;;1.27;;
38567;SDS011;24338;48.280;10.970;2023-04-15T07:06:20;7.38;;;0.90;;
38567;SDS011;24338;48.280;10.970;2023-04-15T07:08:47;3.60;;;1.27;;
38567;SDS011;24338;48.280;10.970;2023-04-15T07:11:14;5.22;;;0.82;;
38567;SDS011;24338;48.280;10.970;2023-04-15T07:13:40;4.40;;;1.48;;
38567;SDS011;24338;48.280;10.970;2023-04-15T07:16:07;5.60;;;0.90;;
38567;SDS011;24338;48.280;10.970;2023-04-15T07:18:34;2.70;;;0.90;;
38567;SDS011;24338;48.280;10.970;2023-04-15T07:21:01;3.95;;;1.15;;
38567;SDS011;24338;48.280;10.970;2023-04-15T07:23:28;3.58;;;0.95;;
38567;SDS011;24338;48.280;10.970;2023-04-15T07:25:54;3.97;;;0.80;;
38567;SDS011;24338;48.280;10.970;2023-04-15T07:28:22;2.45;;;1.00;;
38567;SDS011;24338;48.280;10.970;2023-04-15T07:30:49;4.70;;;0.90;;
38567;SDS011;24338;48.280;10.970;2023-04-15T07:33:16;4.28;;;0.82;;
38567;SDS011;24338;48.280;10.970;2023-04-15T07:35:43;4.15;;;0.85;;
38567;SDS011;24338;48.280;10.970;2023-04-15T07:38:10;3.80;;;1.05;;
38567;SDS011;24338;48.280;10.970;2023-04-15T07:40:40;3.92;;;1.38;;
38567;SDS011;24338;48.280;10.970;2023-04-15T07:43:07;2.72;;;0.90;;
38567;SDS011;24338;48.280;10.970;2023-04-15T07:45:35;3.80;;;0.90;;
38567;SDS011;24338;48.280;10.970;2023-04-15T07:48:01;5.55;;;1.02;;
38567;SDS011;24338;48.280;10.970;2023-04-15T07:50:28;3.72;;;1.10;;
38567;SDS011;24338;48.280;10.970;2023-04-15T07:52:55;10.45;;;1.13;;
38567;SDS011;24338;48.280;10.970;2023-04-15T07:55:22;5.13;;;1.25;;
38567;SDS011;24338;48.280;10.970;2023-04-15T07:57:51;2.60;;;0.90;;
38567;SDS011;24338;48.280;10.970;2023-04-15T08:00:18;3.05;;;1.20;;
38567;SDS011;24338;48.280;10.970;2023-04-15T08:02:45;5.18;;;1.33;;
38567;SDS011;24338;48.280;10.970;2023-04-15T08:05:13;3.10;;;1.05;;
38567;SDS011;24338;48.280;10.970;2023-04-15T08:07:41;6.05;;;1.17;;
38567;SDS011;24338;48.280;10.970;2023-04-15T08:10:07;4.75;;;1.23;;
38567;SDS011;24338;48.280;10.970;2023-04-15T08:12:35;4.20;;;1.38;;
38567;SDS011;24338;48.280;10.970;2023-04-15T08:15:02;6.18;;;1.77;;
38567;SDS011;24338;48.280;10.970;2023-04-15T08:17:33;2.60;;;1.07;;
38567;SDS011;24338;48.280;10.970;2023-04-15T08:20:00;9.20;;;1.10;;
38567;SDS011;24338;48.280;10.970;2023-04-15T08:22:30;4.63;;;1.20;;
38567;SDS011;24338;48.280;10.970;2023-04-15T08:24:57;5.35;;;0.90;;
38567;SDS011;24338;48.280;10.970;2023-04-15T08:27:24;3.63;;;1.50;;
38567;SDS011;24338;48.280;10.970;2023-04-15T08:29:51;2.67;;;1.17;;
38567;SDS011;24338;48.280;10.970;2023-04-15T08:32:18;5.60;;;1.20;;
38567;SDS011;24338;48.280;10.970;2023-04-15T08:34:45;6.65;;;1.35;;
38567;SDS011;24338;48.280;10.970;2023-04-15T08:37:13;2.80;;;1.08;;
38567;SDS011;24338;48.280;10.970;2023-04-15T08:39:40;2.95;;;0.93;;
38567;SDS011;24338;48.280;10.970;2023-04-15T08:42:10;5.45;;;1.40;;
38567;SDS011;24338;48.280;10.970;2023-04-15T08:44:41;5.30;;;0.90;;
38567;SDS011;24338;48.280;10.970;2023-04-15T08:47:09;6.18;;;1.50;;
38567;SDS011;24338;48.280;10.970;2023-04-15T08:49:40;4.55;;;1.10;;
38567;SDS011;24338;48.280;10.970;2023-04-15T08:52:08;6.32;;;1.48;;
38567;SDS011;24338;48.280;10.970;2023-04-15T08:54:35;3.47;;;1.20;;
38567;SDS011;24338;48.280;10.970;2023-04-15T08:57:03;3.92;;;1.30;;
38567;SDS011;24338;48.280;10.970;2023-04-15T08:59:31;4.38;;;1.80;;
38567;SDS011;24338;48.280;10.970;2023-04-15T09:01:58;7.60;;;1.83;;
38567;SDS011;24338;48.280;10.970;2023-04-15T09:04:26;4.97;;;1.25;;
38567;SDS011;24338;48.280;10.970;2023-04-15T09:06:53;3.28;;;1.23;;
38567;SDS011;24338;48.280;10.970;2023-04-15T09:09:20;6.60;;;2.45;;
38567;SDS011;24338;48.280;10.970;2023-04-15T09:11:47;4.72;;;1.90;;
38567;SDS011;24338;48.280;10.970;2023-04-15T09:14:16;3.70;;;2.03;;
38567;SDS011;24338;48.280;10.970;2023-04-15T09:16:59;5.22;;;1.63;;
38567;SDS011;24338;48.280;10.970;2023-04-15T09:19:27;3.92;;;1.75;;
38567;SDS011;24338;48.280;10.970;2023-04-15T09:21:55;5.30;;;1.60;;
38567;SDS011;24338;48.280;10.970;2023-04-15T09:24:24;6.05;;;1.80;;
38567;SDS011;24338;48.280;10.970;2023-04-15T09:26:59;3.45;;;1.52;;
38567;SDS011;24338;48.280;10.970;2023-04-15T09:29:26;3.13;;;1.23;;
38567;SDS011;24338;48.280;10.970;2023-04-15T09:31:53;5.65;;;2.33;;
38567;SDS011;24338;48.280;10.970;2023-04-15T09:34:20;3.95;;;1.60;;
38567;SDS011;24338;48.280;10.970;2023-04-15T09:36:55;4.63;;;2.28;;
38567;SDS011;24338;48.280;10.970;2023-04-15T09:39:22;6.95;;;2.65;;
38567;SDS011;24338;48.280;10.970;2023-04-15T09:42:05;4.07;;;1.73;;
38567;SDS011;24338;48.280;10.970;2023-04-15T09:44:36;3.50;;;1.58;;
38567;SDS011;24338;48.280;10.970;2023-04-15T09:47:03;8.27;;;2.33;;
38567;SDS011;24338;48.280;10.970;2023-04-15T09:49:30;5.82;;;2.70;;
38567;SDS011;24338;48.280;10.970;2023-04-15T09:52:00;4.35;;;1.90;;
38567;SDS011;24338;48.280;10.970;2023-04-15T09:54:35;7.18;;;2.47;;
38567;SDS011;24338;48.280;10.970;2023-04-15T09:57:09;5.45;;;2.20;;
38567;SDS011;24338;48.280;10.970;2023-04-15T09:59:37;5.72;;;2.45;;
38567;SDS011;24338;48.280;10.970;2023-04-15T10:02:09;6.07;;;2.50;;
38567;SDS011;24338;48.280;10.970;2023-04-15T10:04:39;5.40;;;2.00;;
38567;SDS011;24338;48.280;10.970;2023-04-15T10:07:07;5.20;;;2.10;;
38567;SDS011;24338;48.280;10.970;2023-04-15T10:09:45;4.78;;;2.38;;
38567;SDS011;24338;48.280;10.970;2023-04-15T10:12:16;5.13;;;2.35;;
38567;SDS011;24338;48.280;10.970;2023-04-15T10:14:44;5.55;;;2.35;;
38567;SDS011;24338;48.280;10.970;2023-04-15T10:17:17;7.95;;;2.38;;
38567;SDS011;24338;48.280;10.970;2023-04-15T10:19:48;6.47;;;2.13;;
38567;SDS011;24338;48.280;10.970;2023-04-15T10:22:18;5.53;;;2.80;;
38567;SDS011;24338;48.280;10.970;2023-04-15T10:24:45;6.70;;;2.20;;
38567;SDS011;24338;48.280;10.970;2023-04-15T10:27:16;7.03;;;3.08;;
38567;SDS011;24338;48.280;10.970;2023-04-15T10:29:44;6.32;;;2.17;;
38567;SDS011;24338;48.280;10.970;2023-04-15T10:32:11;4.82;;;1.80;;
38567;SDS011;24338;48.280;10.970;2023-04-15T10:34:39;5.55;;;2.47;;
38567;SDS011;24338;48.280;10.970;2023-04-15T10:37:08;6.72;;;2.33;;
38567;SDS011;24338;48.280;10.970;2023-04-15T10:39:37;6.88;;;1.92;;
38567;SDS011;24338;48.280;10.970;2023-04-15T10:44:36;8.55;;;3.35;;
38567;SDS011;24338;48.280;10.970;2023-04-15T10:47:17;12.05;;;4.68;;
38567;SDS011;24338;48.280;10.970;2023-04-15T10:49:49;8.75;;;4.20;;
38567;SDS011;24338;48.280;10.970;2023-04-15T10:52:34;6.40;;;2.60;;
38567;SDS011;24338;48.280;10.970;2023-04-15T10:55:14;5.93;;;2.50;;
38567;SDS011;24338;48.280;10.970;2023-04-15T10:57:45;4.78;;;2.28;;
38567;SDS011;24338;48.280;10.970;2023-04-15T11:00:13;5.03;;;2.13;;
38567;SDS011;24338;48.280;10.970;2023-04-15T11:02:42;4.68;;;2.33;;
38567;SDS011;24338;48.280;10.970;2023-04-15T11:05:09;8.73;;;2.10;;
38567;SDS011;24338;48.280;10.970;2023-04-15T11:07:53;5.63;;;2.35;;
38567;SDS011;24338;48.280;10.970;2023-04-15T11:20:51;5.95;;;3.15;;
38567;SDS011;24338;48.280;10.970;2023-04-15T11:23:35;6.95;;;3.50;;
38567;SDS011;24338;48.280;10.970;2023-04-15T11:26:09;7.30;;;4.22;;
38567;SDS011;24338;48.280;10.970;2023-04-15T11:28:43;10.17;;;3.67;;
38567;SDS011;24338;48.280;10.970;2023-04-15T11:33:45;6.10;;;3.28;;
38567;SDS011;24338;48.280;10.970;2023-04-15T11:36:27;4.72;;;2.38;;
38567;SDS011;24338;48.280;10.970;2023-04-15T11:38:56;4.10;;;1.50;;
38567;SDS011;24338;48.280;10.970;2023-04-15T11:41:24;8.75;;;1.70;;
38567;SDS011;24338;48.280;10.970;2023-04-15T11:43:51;2.83;;;0.88;;
38567;SDS011;24338;48.280;10.970;2023-04-15T11:46:20;2.78;;;0.50;;
38567;SDS011;24338;48.280;10.970;2023-04-15T11:48:54;4.55;;;1.50;;
38567;SDS011;24338;48.280;10.970;2023-04-15T11:51:20;3.08;;;1.05;;
38567;SDS011;24338;48.280;10.970;2023-04-15T11:53:48;5.25;;;2.10;;
38567;SDS011;24338;48.280;10.970;2023-04-15T11:56:20;2.70;;;0.80;;
38567;SDS011;24338;48.280;10.970;2023-04-15T11:58:52;4.60;;;1.05;;
38567;SDS011;24338;48.280;10.970;2023-04-15T12:03:58;7.43;;;1.60;;
38567;SDS011;24338;48.280;10.970;2023-04-15T12:06:33;4.05;;;1.65;;
38567;SDS011;24338;48.280;10.970;2023-04-15T12:14:29;2.85;;;0.98;;
38567;SDS011;24338;48.280;10.970;2023-04-15T12:17:31;2.03;;;0.80;;
38567;SDS011;24338;48.280;10.970;2023-04-15T12:20:43;3.08;;;0.90;;
38567;SDS011;24338;48.280;10.970;2023-04-15T12:23:51;2.90;;;1.02;;
38567;SDS011;24338;48.280;10.970;2023-04-15T12:27:07;3.38;;;1.05;;
38567;SDS011;24338;48.280;10.970;2023-04-15T12:30:02;3.72;;;1.10;;
38567;SDS011;24338;48.280;10.970;2023-04-15T12:32:36;7.47;;;1.42;;
38567;SDS011;24338;48.280;10.970;2023-04-15T12:35:07;3.80;;;1.52;;
38567;SDS011;24338;48.280;10.970;2023-04-15T12:37:34;3.83;;;1.73;;
38567;SDS011;24338;48.280;10.970;2023-04-15T12:40:01;4.15;;;1.45;;
38567;SDS011;24338;48.280;10.970;2023-04-15T12:42:29;5.05;;;2.13;;
38567;SDS011;24338;48.280;10.970;2023-04-15T12:44:56;3.55;;;1.40;;
38567;SDS011;24338;48.280;10.970;2023-04-15T12:47:23;4.05;;;1.05;;
38567;SDS011;24338;48.280;10.970;2023-04-15T12:49:50;4.93;;;1.70;;
38567;SDS011;24338;48.280;10.970;2023-04-15T12:52:17;5.43;;;2.00;;
38567;SDS011;24338;48.280;10.970;2023-04-15T12:54:55;4.63;;;2.33;;
38567;SDS011;24338;48.280;10.970;2023-04-15T12:57:37;4.28;;;2.22;;
38567;SDS011;24338;48.280;10.970;2023-04-15T13:01:20;6.00;;;1.83;;
38567;SDS011;24338;48.280;10.970;2023-04-15T13:04:38;4.97;;;2.20;;
38567;SDS011;24338;48.280;10.970;2023-04-15T13:07:54;4.43;;;2.83;;
38567;SDS011;24338;48.280;10.970;2023-04-15T13:11:23;4.97;;;2.20;;
38567;SDS011;24338;48.280;10.970;2023-04-15T13:14:57;6.93;;;3.08;;
38567;SDS011;24338;48.280;10.970;2023-04-15T13:18:11;4.85;;;2.40;;
38567;SDS011;24338;48.280;10.970;2023-04-15T13:21:47;5.45;;;1.88;;
38567;SDS011;24338;48.280;10.970;2023-04-15T13:24:58;4.87;;;2.33;;
38567;SDS011;24338;48.280;10.970;2023-04-15T13:27:54;5.75;;;2.10;;
38567;SDS011;24338;48.280;10.970;2023-04-15T13:31:31;9.75;;;3.53;;
38567;SDS011;24338;48.280;10.970;2023-04-15T13:34:51;10.68;;;3.10;;
38567;SDS011;24338;48.280;10.970;2023-04-15T13:42:07;7.78;;;1.92;;
38567;SDS011;24338;48.280;10.970;2023-04-15T13:45:38;9.82;;;3.50;;
38567;SDS011;24338;48.280;10.970;2023-04-15T13:53:21;4.68;;;1.75;;
38567;SDS011;24338;48.280;10.970;2023-04-15T13:56:24;3.53;;;1.52;;
38567;SDS011;24338;48.280;10.970;2023-04-15T13:59:29;3.45;;;1.17;;
38567;SDS011;24338;48.280;10.970;2023-04-15T14:03:26;7.20;;;2.13;;
38567;SDS011;24338;48.280;10.970;2023-04-15T14:06:51;4.75;;;1.67;;
38567;SDS011;24338;48.280;10.970;2023-04-15T14:10:22;6.18;;;2.53;;
38567;SDS011;24338;48.280;10.970;2023-04-15T14:13:57;6.57;;;2.63;;
38567;SDS011;24338;48.280;10.970;2023-04-15T14:17:38;6.78;;;2.92;;
38567;SDS011;24338;48.280;10.970;2023-04-15T14:20:22;4.13;;;1.88;;
38567;SDS011;24338;48.280;10.970;2023-04-15T14:27:07;2.00;;;1.10;;
38567;SDS011;24338;48.280;10.970;2023-04-15T14:30:38;3.13;;;1.00;;
38567;SDS011;24338;48.280;10.970;2023-04-15T14:34:18;4.55;;;2.08;;
38567;SDS011;24338;48.280;10.970;2023-04-15T14:38:13;4.88;;;1.23;;
38567;SDS011;24338;48.280;10.970;2023-04-15T14:41:52;5.07;;;1.48;;
38567;SDS011;24338;48.280;10.970;2023-04-15T14:44:55;5.88;;;1.40;;
38567;SDS011;24338;48.280;10.970;2023-04-15T14:48:42;3.05;;;1.50;;
38567;SDS011;24338;48.280;10.970;2023-04-15T14:51:55;3.10;;;1.10;;
38567;SDS011;24338;48.280;10.970;2023-04-15T14:55:11;3.50;;;1.13;;
38567;SDS011;24338;48.280;10.970;2023-04-15T15:02:48;6.38;;;1.63;;
38567;SDS011;24338;48.280;10.970;2023-04-15T15:05:18;4.93;;;2.67;;
38567;SDS011;24338;48.280;10.970;2023-04-15T15:07:47;6.78;;;3.30;;
38567;SDS011;24338;48.280;10.970;2023-04-15T15:10:31;6.68;;;2.75;;
38567;SDS011;24338;48.280;10.970;2023-04-15T15:13:56;4.65;;;1.60;;
38567;SDS011;24338;48.280;10.970;2023-04-15T15:16:25;1.88;;;0.90;;
38567;SDS011;24338;48.280;10.970;2023-04-15T15:19:49;5.05;;;1.77;;
38567;SDS011;24338;48.280;10.970;2023-04-15T15:22:16;3.67;;;1.30;;
38567;SDS011;24338;48.280;10.970;2023-04-15T15:24:46;2.78;;;1.38;;
38567;SDS011;24338;48.280;10.970;2023-04-15T15:27:13;2.72;;;1.10;;
38567;SDS011;24338;48.280;10.970;2023-04-15T15:29:40;3.53;;;1.17;;
38567;SDS011;24338;48.280;10.970;2023-04-15T15:32:06;3.28;;;1.27;;
38567;SDS011;24338;48.280;10.970;2023-04-15T15:34:33;11.65;;;6.20;;
38567;SDS011;24338;48.280;10.970;2023-04-15T15:37:00;11.70;;;6.75;;
38567;SDS011;24338;48.280;10.970;2023-04-15T15:39:30;10.10;;;4.72;;
38567;SDS011;24338;48.280;10.970;2023-04-15T15:41:57;6.35;;;2.70;;
38567;SDS011;24338;48.280;10.970;2023-04-15T15:44:24;4.60;;;1.40;;
38567;SDS011;24338;48.280;10.970;2023-04-15T15:46:51;2.60;;;1.33;;
38567;SDS011;24338;48.280;10.970;2023-04-15T15:49:17;3.83;;;1.27;;
38567;SDS011;24338;48.280;10.970;2023-04-15T15:51:45;3.65;;;1.35;;
38567;SDS011;24338;48.280;10.970;2023-04-15T15:54:12;3.35;;;1.60;;